Time;durP1;ratioP1;P1;durP2;ratioP2;P2;SDS_P1;SDS_P2;PMS_P1;PMS_P2;Temp;Humidity;BMP_temperature;BMP_pressure;BME280_temperature;BME280_humidity;BME280_pressure;Samples;Min_cycle;Max_cycle;Signal;HPM_P1;HPM_P2
2021/09/17 00:01:50;;;;;;;5.05;2.42;;;;;;;21.63;42.88;101360.22;5047943;28;20054;-72
2021/09/17 00:04:17;;;;;;;6.90;2.47;;;;;;;21.62;42.77;101363.13;5046898;28;20102;-72
2021/09/17 00:06:43;;;;;;;4.68;2.20;;;;;;;21.60;42.81;101367.94;5047962;28;20057;-72
2021/09/17 00:09:10;;;;;;;4.78;2.20;;;;;;;21.57;43.18;101366.41;5047048;28;20064;-72
2021/09/17 00:11:38;;;;;;;4.28;2.13;;;;;;;21.55;43.30;101357.38;5047943;28;20557;-72
2021/09/17 00:14:04;;;;;;;4.57;2.42;;;;;;;21.54;43.18;101365.84;5046767;28;20084;-72
2021/09/17 00:16:31;;;;;;;3.65;2.30;;;;;;;21.52;43.15;101354.94;5047556;28;20057;-72
2021/09/17 00:18:57;;;;;;;5.18;2.38;;;;;;;21.52;43.26;101357.69;5046511;28;20136;-73
2021/09/17 00:21:24;;;;;;;4.68;1.98;;;;;;;21.51;43.27;101357.84;5047201;28;20053;-72
2021/09/17 00:23:50;;;;;;;4.05;2.42;;;;;;;21.51;43.72;101355.09;5028653;28;20144;-73
2021/09/17 00:26:17;;;;;;;4.03;2.10;;;;;;;21.49;43.54;101351.66;5047541;28;20091;-73
2021/09/17 00:28:43;;;;;;;4.03;2.40;;;;;;;21.48;43.28;101350.78;5028604;28;20468;-72
2021/09/17 00:31:10;;;;;;;4.28;2.05;;;;;;;21.48;43.70;101359.06;5047447;28;20124;-72
2021/09/17 00:33:36;;;;;;;3.72;2.10;;;;;;;21.49;43.35;101354.41;5046403;28;20355;-73
2021/09/17 00:36:03;;;;;;;3.63;1.95;;;;;;;21.48;43.47;101355.44;5029646;28;20425;-72
2021/09/17 00:38:30;;;;;;;4.40;2.17;;;;;;;21.49;43.48;101357.19;5046622;28;20049;-73
2021/09/17 00:40:56;;;;;;;4.35;2.38;;;;;;;21.48;43.53;101345.25;5047489;28;20049;-72
2021/09/17 00:43:23;;;;;;;6.03;2.40;;;;;;;21.48;43.40;101345.25;5046395;28;20049;-73
2021/09/17 00:45:49;;;;;;;5.43;2.33;;;;;;;21.49;43.60;101346.13;5047446;28;20123;-72
2021/09/17 00:48:16;;;;;;;4.47;2.28;;;;;;;21.50;44.13;101345.06;5046021;28;20045;-73
2021/09/17 00:50:43;;;;;;;4.63;2.17;;;;;;;21.49;43.92;101341.47;5047359;28;20128;-72
2021/09/17 00:53:10;;;;;;;3.80;2.13;;;;;;;21.50;43.58;101347.81;5046442;28;20055;-72
2021/09/17 00:55:37;;;;;;;4.97;2.28;;;;;;;21.49;43.74;101343.38;5047119;28;20517;-72
2021/09/17 00:58:03;;;;;;;3.88;2.17;;;;;;;21.49;43.67;101347.00;5046195;28;20059;-72
2021/09/17 01:00:30;;;;;;;3.47;2.20;;;;;;;21.50;43.70;101348.69;5028836;28;20045;-72
2021/09/17 01:02:57;;;;;;;3.70;2.20;;;;;;;21.50;44.22;101348.69;5045853;28;20057;-72
2021/09/17 01:05:23;;;;;;;4.50;2.33;;;;;;;21.50;43.76;101345.94;5047014;28;20056;-73
2021/09/17 01:07:50;;;;;;;3.30;2.00;;;;;;;21.50;43.95;101343.16;5045849;28;20502;-73
2021/09/17 01:10:16;;;;;;;3.47;2.03;;;;;;;21.50;44.35;101345.94;5046716;28;20045;-73
2021/09/17 01:12:45;;;;;;;4.22;2.20;;;;;;;21.49;44.26;101349.75;5056857;28;20402;-72
2021/09/17 01:15:12;;;;;;;4.70;2.63;;;;;;;21.49;44.40;101343.38;5051238;28;20049;-73
2021/09/17 01:17:42;;;;;;;4.97;2.30;;;;;;;21.50;44.38;101343.16;5045515;28;20053;-72
2021/09/17 01:20:12;;;;;;;4.20;2.50;;;;;;;21.49;44.50;101338.72;5046772;28;20132;-72
2021/09/17 01:22:39;;;;;;;4.05;1.98;;;;;;;21.48;44.34;101333.34;5045932;28;20136;-73
2021/09/17 01:25:08;;;;;;;4.03;2.58;;;;;;;21.48;44.40;101325.91;5046213;28;20498;-72
2021/09/17 01:27:35;;;;;;;3.85;2.33;;;;;;;21.46;43.96;101332.63;5044744;28;20143;-72
2021/09/17 01:30:04;;;;;;;4.65;2.65;;;;;;;21.48;44.05;101330.56;5054736;28;20083;-72
2021/09/17 01:32:31;;;;;;;3.92;2.30;;;;;;;21.46;44.47;101333.50;5045539;28;20103;-72
2021/09/17 01:34:58;;;;;;;3.67;2.25;;;;;;;21.45;44.35;101319.84;5046745;28;20045;-72
2021/09/17 01:37:24;;;;;;;5.10;2.17;;;;;;;21.44;44.10;101330.00;5045015;28;20131;-73
2021/09/17 01:39:51;;;;;;;4.35;2.47;;;;;;;21.43;44.61;101324.66;5046036;28;20045;-72
2021/09/17 01:42:17;;;;;;;3.88;2.53;;;;;;;21.43;44.38;101328.28;5046835;28;20200;-72
2021/09/17 01:44:44;;;;;;;4.85;2.20;;;;;;;21.41;44.26;101318.44;5045288;28;20059;-72
2021/09/17 01:47:10;;;;;;;3.50;2.25;;;;;;;21.40;44.24;101314.81;5045742;28;20518;-72
2021/09/17 01:49:37;;;;;;;4.38;2.05;;;;;;;21.41;44.64;101321.19;5045314;28;20103;-72
2021/09/17 01:52:04;;;;;;;3.55;2.05;;;;;;;21.41;44.59;101321.19;5046230;28;20682;-72
2021/09/17 01:54:30;;;;;;;4.43;2.53;;;;;;;21.39;44.79;101315.84;5027382;28;20135;-72
2021/09/17 01:56:57;;;;;;;4.35;2.20;;;;;;;21.39;44.73;101310.31;5045322;28;20057;-72
2021/09/17 01:59:23;;;;;;;3.95;2.30;;;;;;;21.38;45.01;101311.31;5052804;28;20223;-72
2021/09/17 02:01:50;;;;;;;4.90;2.13;;;;;;;21.38;44.53;101305.81;5028391;28;20049;-72
2021/09/17 02:04:17;;;;;;;4.45;2.35;;;;;;;21.38;44.73;101305.81;5044649;28;20297;-72
2021/09/17 02:06:44;;;;;;;3.83;2.30;;;;;;;21.38;44.52;101300.28;5045818;28;20079;-72
2021/09/17 02:09:10;;;;;;;4.03;2.10;;;;;;;21.38;44.68;101302.16;5027183;28;20144;-72
2021/09/17 02:11:37;;;;;;;4.05;2.33;;;;;;;21.37;44.84;101298.53;5045830;28;20139;-72
2021/09/17 02:14:04;;;;;;;3.40;1.85;;;;;;;21.37;44.54;101294.91;5044646;28;20139;-72
2021/09/17 02:16:30;;;;;;;4.72;2.22;;;;;;;21.37;44.72;101290.25;5045119;28;20095;-72
2021/09/17 02:18:57;;;;;;;3.75;2.20;;;;;;;21.38;44.86;101299.41;5027196;28;20128;-72
2021/09/17 02:21:24;;;;;;;4.15;2.28;;;;;;;21.37;44.59;101298.53;5045466;28;20059;-72
2021/09/17 02:23:51;;;;;;;3.85;2.30;;;;;;;21.38;44.51;101297.50;5026838;28;20221;-72
2021/09/17 02:26:18;;;;;;;3.75;2.10;;;;;;;21.39;44.86;101296.50;5045761;28;20412;-72
2021/09/17 02:28:45;;;;;;;4.78;2.50;;;;;;;21.39;44.86;101293.72;5044485;28;20067;-72
2021/09/17 02:31:11;;;;;;;4.32;2.30;;;;;;;21.39;44.76;101292.84;5045567;28;20083;-72
2021/09/17 02:33:38;;;;;;;4.20;2.45;;;;;;;21.39;44.83;101290.09;5044577;28;20128;-72
2021/09/17 02:36:05;;;;;;;4.07;2.47;;;;;;;21.40;44.92;101295.47;5045366;28;20057;-72
2021/09/17 02:38:32;;;;;;;4.88;2.20;;;;;;;21.39;44.98;101290.97;5044331;28;20057;-72
2021/09/17 02:40:59;;;;;;;3.63;2.03;;;;;;;21.39;45.16;101292.84;5027798;28;20080;-72
2021/09/17 02:43:26;;;;;;;3.72;2.35;;;;;;;21.39;44.86;101288.19;5044458;28;20133;-72
2021/09/17 02:45:52;;;;;;;4.10;2.60;;;;;;;21.39;45.27;101287.34;5049377;28;20087;-71
2021/09/17 02:48:19;;;;;;;3.72;2.17;;;;;;;21.39;44.99;101292.84;5051249;28;20049;-72
2021/09/17 02:50:46;;;;;;;4.00;2.50;;;;;;;21.38;45.00;101277.31;5052097;28;20091;-72
2021/09/17 02:53:12;;;;;;;4.30;2.67;;;;;;;21.38;45.03;101282.84;5037680;28;20063;-72
2021/09/17 02:55:39;;;;;;;4.00;2.80;;;;;;;21.38;45.33;101280.06;5031811;28;20045;-72
2021/09/17 02:58:05;;;;;;;4.25;2.75;;;;;;;21.37;45.10;101284.72;5044783;28;20055;-72
2021/09/17 03:00:32;;;;;;;4.05;2.45;;;;;;;21.37;45.50;101276.44;5061341;28;20483;-72
2021/09/17 03:02:59;;;;;;;3.80;2.35;;;;;;;21.37;45.56;101270.91;5058831;28;20564;-72
2021/09/17 03:05:25;;;;;;;5.75;2.40;;;;;;;21.37;45.69;101276.44;5051672;28;20132;-72
2021/09/17 03:07:52;;;;;;;5.28;2.63;;;;;;;21.36;45.37;101274.72;5033107;28;20045;-72
2021/09/17 03:10:18;;;;;;;4.15;2.40;;;;;;;21.36;45.34;101266.41;5051567;28;20132;-73
2021/09/17 03:12:45;;;;;;;5.28;2.50;;;;;;;21.36;45.42;101269.19;5051142;28;20129;-72
2021/09/17 03:15:13;;;;;;;4.63;2.58;;;;;;;21.36;45.41;101266.41;5051483;28;20063;-72
2021/09/17 03:17:39;;;;;;;3.50;2.35;;;;;;;21.37;45.63;101270.91;5050913;28;20520;-72
2021/09/17 03:20:06;;;;;;;4.05;2.40;;;;;;;21.37;45.46;101265.41;5051757;28;20051;-72
2021/09/17 03:22:33;;;;;;;4.47;2.30;;;;;;;21.38;45.32;101272.66;5050800;28;20051;-72
2021/09/17 03:25:00;;;;;;;4.40;2.42;;;;;;;21.38;45.23;101269.03;5051658;28;20049;-72
2021/09/17 03:27:27;;;;;;;4.07;2.60;;;;;;;21.38;45.28;101269.88;5049790;28;20545;-72
2021/09/17 03:29:53;;;;;;;4.13;2.60;;;;;;;21.39;45.37;101265.22;5051310;28;20055;-72
2021/09/17 03:32:19;;;;;;;5.97;2.63;;;;;;;21.39;45.66;101262.47;5050621;28;20148;-73
2021/09/17 03:34:46;;;;;;;5.32;2.90;;;;;;;21.38;45.07;101267.13;5051748;28;20040;-73
2021/09/17 03:37:13;;;;;;;4.43;2.70;;;;;;;21.38;45.53;101257.97;5051718;28;20095;-73
2021/09/17 03:39:40;;;;;;;4.30;2.50;;;;;;;21.37;45.63;101261.75;5032705;28;20055;-73
2021/09/17 03:42:07;;;;;;;3.53;2.33;;;;;;;21.36;45.13;101262.78;5051572;28;20527;-73
2021/09/17 03:44:34;;;;;;;5.40;2.80;;;;;;;21.35;45.48;101250.00;5050316;28;20049;-73
2021/09/17 03:47:01;;;;;;;4.72;2.50;;;;;;;21.34;45.86;101260.19;5051141;28;20140;-73
2021/09/17 03:49:28;;;;;;;3.83;2.58;;;;;;;21.33;45.58;101254.84;5032493;28;20131;-73
2021/09/17 03:51:56;;;;;;;4.35;2.75;;;;;;;21.32;45.86;101256.75;5051516;28;20494;-73
2021/09/17 03:54:26;;;;;;;4.82;2.95;;;;;;;21.33;45.70;101257.59;5050219;28;20080;-73
2021/09/17 03:56:59;;;;;;;4.32;2.80;;;;;;;21.34;46.13;101253.78;5048432;28;20049;-73
2021/09/17 03:59:25;;;;;;;5.97;3.20;;;;;;;21.30;45.77;101250.50;5046746;28;20076;-73
2021/09/17 04:01:52;;;;;;;5.30;2.97;;;;;;;21.32;46.06;101247.59;5047808;28;20128;-73
2021/09/17 04:04:18;;;;;;;3.83;2.55;;;;;;;21.32;46.02;101244.81;5047264;28;20049;-73
2021/09/17 04:06:45;;;;;;;4.32;2.72;;;;;;;21.31;45.69;101237.56;5048150;28;20140;-73
2021/09/17 04:09:15;;;;;;;6.47;3.03;;;;;;;21.33;46.21;101250.16;5029534;28;20045;-73
2021/09/17 04:11:41;;;;;;;4.70;2.92;;;;;;;21.30;45.89;101257.91;5048299;28;20079;-73
2021/09/17 04:14:08;;;;;;;6.32;3.67;;;;;;;21.29;45.91;101253.41;5046651;28;20320;-73
2021/09/17 04:16:35;;;;;;;5.50;3.67;;;;;;;21.28;46.07;101252.56;5047400;28;20495;-73
2021/09/17 04:19:01;;;;;;;5.53;3.50;;;;;;;21.27;46.04;101259.09;5029034;28;20565;-73
2021/09/17 04:21:28;;;;;;;6.35;3.65;;;;;;;21.26;46.26;101246.31;5030150;28;20038;-73
2021/09/17 04:23:54;;;;;;;5.55;3.53;;;;;;;21.25;45.86;101237.16;5046837;28;20479;-73
2021/09/17 04:26:22;;;;;;;6.38;3.72;;;;;;;21.24;46.10;101246.50;5047276;28;20461;-73
2021/09/17 04:28:50;;;;;;;6.22;3.47;;;;;;;21.25;46.25;101239.06;5046435;28;20063;-73
2021/09/17 04:31:17;;;;;;;6.07;3.92;;;;;;;21.24;46.71;101243.75;5029667;28;20075;-73
2021/09/17 04:33:44;;;;;;;6.22;3.88;;;;;;;21.24;46.27;101242.88;5047003;28;20048;-73
2021/09/17 04:36:10;;;;;;;7.82;4.28;;;;;;;21.23;46.23;101239.25;5047488;28;20137;-73
2021/09/17 04:38:37;;;;;;;5.97;3.97;;;;;;;21.24;46.24;101248.41;5028658;28;20071;-73
2021/09/17 04:41:03;;;;;;;6.50;4.05;;;;;;;21.24;46.23;101235.47;5047277;28;20091;-73
2021/09/17 04:43:30;;;;;;;5.75;3.67;;;;;;;21.25;46.47;101250.09;5046127;28;20072;-73
2021/09/17 04:45:56;;;;;;;6.47;3.92;;;;;;;21.25;46.06;101236.28;5047017;28;20049;-73
2021/09/17 04:48:23;;;;;;;5.82;4.05;;;;;;;21.24;46.20;101249.25;5046322;28;20127;-73
2021/09/17 04:50:49;;;;;;;6.28;4.20;;;;;;;21.25;46.45;101247.34;5047283;28;20143;-73
2021/09/17 04:53:16;;;;;;;7.43;4.85;;;;;;;21.25;47.31;101250.09;5032521;28;20540;-73
2021/09/17 04:55:42;;;;;;;5.85;4.30;;;;;;;21.25;46.22;101250.97;5028733;28;20048;-73
2021/09/17 04:58:09;;;;;;;6.60;4.00;;;;;;;21.25;46.35;101255.63;5046147;28;20144;-73
2021/09/17 05:00:37;;;;;;;7.07;4.30;;;;;;;21.26;46.61;101252.72;5047220;28;20128;-73
2021/09/17 05:03:04;;;;;;;6.88;4.15;;;;;;;21.25;46.54;101245.44;5028754;28;20432;-73
2021/09/17 05:05:31;;;;;;;6.10;3.90;;;;;;;21.25;46.34;101234.41;5029566;28;20139;-73
2021/09/17 05:07:57;;;;;;;7.18;3.97;;;;;;;21.26;46.74;101238.91;5045632;28;20053;-74
2021/09/17 05:10:24;;;;;;;8.00;4.18;;;;;;;21.27;46.78;101239.78;5029224;28;20049;-74
2021/09/17 05:12:50;;;;;;;7.35;4.40;;;;;;;21.27;46.31;101251.69;5028161;28;20132;-74
2021/09/17 05:15:17;;;;;;;5.53;3.78;;;;;;;21.28;46.75;101255.31;5046625;28;20056;-74
2021/09/17 05:17:44;;;;;;;6.55;4.18;;;;;;;21.30;46.67;101252.41;5045295;28;20147;-73
2021/09/17 05:20:12;;;;;;;5.88;3.65;;;;;;;21.30;46.29;101252.41;5046858;28;20084;-74
2021/09/17 05:22:38;;;;;;;6.97;4.13;;;;;;;21.30;46.64;101252.41;5046155;28;20745;-74
2021/09/17 05:25:05;;;;;;;7.25;4.80;;;;;;;21.31;47.02;101254.13;5046004;28;20542;-74
2021/09/17 05:27:32;;;;;;;6.63;4.18;;;;;;;21.30;46.25;101253.25;5026324;28;20124;-73
2021/09/17 05:29:59;;;;;;;5.85;4.28;;;;;;;21.31;46.42;101252.25;5046348;28;20117;-74
2021/09/17 05:32:26;;;;;;;9.38;5.10;;;;;;;21.31;46.57;101246.72;5045775;28;20053;-74
2021/09/17 05:34:53;;;;;;;6.88;4.57;;;;;;;21.31;46.47;101260.53;5046805;28;20406;-74
2021/09/17 05:37:19;;;;;;;6.40;4.10;;;;;;;21.30;46.42;101257.91;5045049;28;20073;-74
2021/09/17 05:39:46;;;;;;;7.47;5.15;;;;;;;21.30;47.10;101258.78;5046574;28;20040;-74
2021/09/17 05:42:12;;;;;;;7.30;4.65;;;;;;;21.30;46.88;101253.25;5046178;28;20143;-72
2021/09/17 05:44:39;;;;;;;6.95;4.20;;;;;;;21.29;46.56;101257.06;5045235;28;20143;-72
2021/09/17 05:47:05;;;;;;;7.32;4.75;;;;;;;21.31;46.84;101265.19;5045894;28;20579;-72
2021/09/17 05:49:32;;;;;;;9.32;4.93;;;;;;;21.30;47.08;101261.56;5027769;28;20421;-72
2021/09/17 05:51:58;;;;;;;7.97;4.65;;;;;;;21.30;46.72;101260.69;5028127;28;20124;-72
2021/09/17 05:54:27;;;;;;;7.10;4.85;;;;;;;21.32;46.63;101264.16;5044911;28;20080;-72
2021/09/17 05:56:54;;;;;;;8.02;4.75;;;;;;;21.32;47.16;101264.16;5045554;28;20140;-72
2021/09/17 05:59:20;;;;;;;7.38;4.63;;;;;;;21.31;47.02;101266.06;5027178;28;20043;-72
2021/09/17 06:01:47;;;;;;;7.70;5.15;;;;;;;21.32;47.16;101262.25;5045469;28;20068;-72
2021/09/17 06:04:13;;;;;;;7.55;4.93;;;;;;;21.32;46.81;101276.06;5027294;28;20053;-72
2021/09/17 06:06:40;;;;;;;8.25;5.07;;;;;;;21.33;47.19;101268.66;5045084;28;20147;-72
2021/09/17 06:09:07;;;;;;;8.68;5.22;;;;;;;21.33;47.39;101268.66;5027288;28;20144;-72
2021/09/17 06:11:33;;;;;;;9.25;5.70;;;;;;;21.33;47.07;101263.97;5045617;28;20414;-72
2021/09/17 06:14:00;;;;;;;9.45;5.40;;;;;;;21.33;47.27;101265.91;5044976;28;20056;-72
2021/09/17 06:16:26;;;;;;;9.95;6.07;;;;;;;21.35;47.09;101269.34;5027076;28;20057;-72
2021/09/17 06:19:01;;;;;;;11.57;6.47;;;;;;;21.35;47.11;101275.72;5044805;28;20080;-73
2021/09/17 06:21:31;;;;;;;9.93;5.82;;;;;;;21.36;47.19;101265.56;5044611;28;20080;-68
2021/09/17 06:23:58;;;;;;;8.98;6.38;;;;;;;21.36;47.14;101271.94;5044798;28;20162;-65
2021/09/17 06:26:30;;;;;;;8.95;6.13;;;;;;;21.38;47.53;101275.41;5045333;28;20128;-67
2021/09/17 06:29:02;;;;;;;8.90;5.78;;;;;;;21.38;47.64;101267.13;5044209;28;20143;-67
2021/09/17 06:31:28;;;;;;;7.50;5.70;;;;;;;21.37;47.33;101270.06;5045091;28;20128;-66
2021/09/17 06:33:55;;;;;;;8.30;5.60;;;;;;;21.39;47.04;101262.47;5044498;28;20077;-74
2021/09/17 06:36:23;;;;;;;8.55;5.63;;;;;;;21.42;47.10;101265.75;5045188;28;20044;-74
2021/09/17 06:38:50;;;;;;;10.63;6.05;;;;;;;;;;5044487;28;20136;-74
2021/09/17 06:41:16;;;;;;;10.57;6.90;;;;;;;21.44;47.77;101268.38;5044954;28;20055;-74
2021/09/17 06:43:43;;;;;;;10.18;7.22;;;;;;;21.46;47.43;101263.56;5044742;28;20049;-74
2021/09/17 06:46:09;;;;;;;10.25;7.25;;;;;;;21.48;47.32;101264.25;5026922;28;20506;-74
2021/09/17 06:48:36;;;;;;;9.35;6.35;;;;;;;21.50;47.72;101262.19;5026624;28;20045;-74
2021/09/17 06:51:03;;;;;;;11.15;6.05;;;;;;;21.52;47.77;101266.53;5044956;28;20079;-74
2021/09/17 06:53:29;;;;;;;8.30;5.25;;;;;;;21.54;47.27;101267.22;5028945;28;20426;-74
2021/09/17 06:55:56;;;;;;;7.93;5.30;;;;;;;21.55;47.16;101265.34;5011780;28;20052;-74
2021/09/17 06:58:28;;;;;;;7.78;5.30;;;;;;;21.57;47.51;101266.06;5044349;28;20144;-74
2021/09/17 07:00:55;;;;;;;;;;;;;;;21.32;48.15;101259.50;5052065;28;20048;-74
2021/09/17 07:03:22;;;;;;;9.23;5.93;;;;;;;21.55;47.66;101265.34;5026651;28;19993;-74
2021/09/17 07:05:48;;;;;;;14.40;7.72;;;;;;;21.60;47.50;101272.09;5027236;28;20045;-75
2021/09/17 07:08:16;;;;;;;12.57;7.90;;;;;;;21.63;47.62;101265.38;5044315;28;20067;-74
2021/09/17 07:10:42;;;;;;;11.43;7.65;;;;;;;21.63;47.03;101257.97;5027449;28;20087;-74
2021/09/17 07:13:10;;;;;;;12.15;7.75;;;;;;;21.66;47.45;101266.97;5043962;28;20080;-74
2021/09/17 07:15:36;;;;;;;13.05;7.95;;;;;;;21.67;47.14;101260.38;5023642;23;20119;-74
2021/09/17 07:18:05;;;;;;;14.15;9.40;;;;;;;21.71;46.81;101264.56;5006299;28;20053;-75
2021/09/17 07:20:33;;;;;;;12.10;8.57;;;;;;;21.71;47.18;101264.56;5025344;28;20077;-74
2021/09/17 07:23:00;;;;;;;11.35;8.07;;;;;;;21.71;46.98;101253.50;5006918;28;20049;-75
2021/09/17 07:25:26;;;;;;;12.90;7.78;;;;;;;21.73;46.74;101259.75;5025592;28;20410;-74
2021/09/17 07:27:53;;;;;;;10.50;7.43;;;;;;;21.74;47.20;101259.59;5006360;28;20423;-74
2021/09/17 07:30:21;;;;;;;11.73;8.70;;;;;;;21.75;47.14;101261.28;5004880;28;20076;-74
2021/09/17 07:32:48;;;;;;;11.27;7.88;;;;;;;21.77;46.82;101258.38;5022997;28;20042;-74
2021/09/17 07:35:19;;;;;;;11.93;8.02;;;;;;;21.78;47.07;101260.09;5029072;28;20430;-74
2021/09/17 07:37:46;;;;;;;12.23;7.70;;;;;;;21.79;46.76;101265.47;5027561;28;20095;-74
2021/09/17 07:40:14;;;;;;;13.73;7.60;;;;;;;21.81;46.61;101257.03;5028924;28;20455;-75
2021/09/17 07:42:43;;;;;;;10.00;6.72;;;;;;;21.82;46.60;101254.09;5027513;28;20041;-74
2021/09/17 07:45:11;;;;;;;14.52;8.50;;;;;;;21.84;46.86;101262.19;5011019;28;20050;-74
2021/09/17 07:47:38;;;;;;;11.10;8.30;;;;;;;21.82;47.13;101254.09;5015879;28;20884;-75
2021/09/17 07:50:06;;;;;;;11.98;7.50;;;;;;;21.86;46.81;101262.91;5009106;28;20050;-75
2021/09/17 07:52:33;;;;;;;11.13;7.38;;;;;;;21.85;47.15;101261.16;5010245;28;20081;-75
2021/09/17 07:55:00;;;;;;;10.18;7.13;;;;;;;21.85;47.00;101261.16;5008929;28;20050;-75
2021/09/17 07:57:27;;;;;;;12.43;8.27;;;;;;;21.85;46.97;101262.03;5012891;28;20261;-74
2021/09/17 07:59:53;;;;;;;13.30;8.23;;;;;;;21.86;46.68;101251.84;5013251;28;20136;-74
2021/09/17 08:02:20;;;;;;;12.82;7.55;;;;;;;21.87;46.95;101253.59;5027397;28;20521;-74
2021/09/17 08:04:47;;;;;;;11.02;7.45;;;;;;;21.88;47.21;101258.09;5028319;28;20053;-75
2021/09/17 08:07:13;;;;;;;10.40;6.75;;;;;;;21.90;47.24;101256.03;5022304;28;20136;-74
2021/09/17 08:09:40;;;;;;;9.25;6.72;;;;;;;21.91;46.97;101258.59;5007514;28;20074;-74
2021/09/17 08:12:07;;;;;;;9.63;6.80;;;;;;;21.92;46.77;101254.81;4990861;28;20080;-74
2021/09/17 08:14:34;;;;;;;11.77;6.82;;;;;;;21.93;47.30;101251.00;5007186;28;20046;-74
2021/09/17 08:17:00;;;;;;;9.55;6.53;;;;;;;21.95;47.31;101251.72;4990535;28;20128;-75
2021/09/17 08:19:27;;;;;;;10.02;6.93;;;;;;;21.97;47.11;101246.06;5007341;28;20054;-75
2021/09/17 08:21:54;;;;;;;10.02;7.25;;;;;;;21.99;46.53;101252.25;5008025;28;20214;-75
2021/09/17 08:24:20;;;;;;;11.25;7.22;;;;;;;22.01;47.21;101247.44;4989794;28;20050;-75
2021/09/17 08:26:50;;;;;;;10.93;7.50;;;;;;;22.07;46.84;101251.47;4990743;28;20074;-75
2021/09/17 08:29:17;;;;;;;11.25;7.20;;;;;;;22.07;47.09;101249.56;4999822;28;20409;-74
2021/09/17 08:31:44;;;;;;;10.40;7.00;;;;;;;22.09;47.24;101250.25;4990551;28;20125;-75
2021/09/17 08:34:11;;;;;;;10.73;7.22;;;;;;;22.11;47.08;101239.88;4989830;28;20065;-74
2021/09/17 08:36:38;;;;;;;10.98;7.47;;;;;;;22.13;47.12;101250.78;5007831;28;20108;-74
2021/09/17 08:39:06;;;;;;;10.25;7.28;;;;;;;22.15;46.70;101234.91;5005918;28;20077;-74
2021/09/17 08:41:33;;;;;;;11.13;7.03;;;;;;;22.16;46.80;101244.91;5009703;28;20337;-75
2021/09/17 08:44:01;;;;;;;12.73;8.23;;;;;;;22.17;46.61;101232.81;4993157;28;20050;-75
2021/09/17 08:46:27;;;;;;;12.05;7.50;;;;;;;22.18;46.44;101232.63;4990198;28;20362;-74
2021/09/17 08:48:56;;;;;;;12.85;7.78;;;;;;;22.21;46.74;101234.22;5020528;28;20479;-74
2021/09/17 08:51:23;;;;;;;10.82;6.90;;;;;;;22.20;46.53;101240.78;5009400;28;20053;-74
2021/09/17 08:53:50;;;;;;;13.02;7.45;;;;;;;22.22;46.84;101252.53;5003121;28;20499;-75
2021/09/17 08:56:18;;;;;;;9.73;7.07;;;;;;;22.26;47.06;101262.22;5009525;28;20144;-74
2021/09/17 08:58:46;;;;;;;10.48;7.55;;;;;;;22.25;46.62;101261.34;5016266;28;20053;-74
2021/09/17 09:01:24;;;;;;;10.23;7.38;;;;;;;22.30;46.70;101264.50;5012408;28;20050;-74
2021/09/17 09:03:53;;;;;;;12.38;7.10;;;;;;;22.29;46.93;101256.38;5017774;28;20053;-74
2021/09/17 09:06:20;;;;;;;9.95;7.47;;;;;;;22.30;46.61;101247.91;5009533;28;20418;-75
2021/09/17 09:08:48;;;;;;;12.45;8.25;;;;;;;22.34;47.21;101246.50;5015672;28;20538;-74
2021/09/17 09:11:33;;;;;;;10.23;7.25;;;;;;;22.39;47.18;101248.78;5007420;28;20133;-74
2021/09/17 09:14:13;;;;;;;12.70;7.25;;;;;;;22.46;47.41;101248.97;5005869;28;20049;-75
2021/09/17 09:16:49;;;;;;;13.05;8.98;;;;;;;22.50;46.81;101250.34;5006636;28;20099;-75
2021/09/17 09:19:23;;;;;;;11.98;8.75;;;;;;;22.58;47.14;101256.75;5018624;28;20041;-74
2021/09/17 09:22:10;;;;;;;13.15;8.45;;;;;;;22.62;46.74;101262.84;5026850;28;20045;-74
2021/09/17 09:24:40;;;;;;;11.55;7.15;;;;;;;22.69;47.06;101259.22;4993340;28;20084;-75
2021/09/17 09:27:08;;;;;;;11.98;8.30;;;;;;;22.81;46.96;101254.25;5006851;28;20127;-75
2021/09/17 09:29:36;;;;;;;13.13;8.65;;;;;;;22.89;47.11;101258.91;5004581;28;20127;-75
2021/09/17 09:32:03;;;;;;;12.48;9.27;;;;;;;22.97;46.94;101259.78;4989432;28;20041;-75
2021/09/17 09:34:58;;;;;;;11.75;8.50;;;;;;;23.10;46.63;101259.25;5016149;28;20128;-75
2021/09/17 09:37:30;;;;;;;11.38;8.40;;;;;;;23.19;47.06;101260.13;5008141;28;20483;-74
2021/09/17 09:40:06;;;;;;;14.25;8.50;;;;;;;23.29;46.57;101255.25;4993856;28;20053;-75
2021/09/17 09:42:37;;;;;;;12.32;8.07;;;;;;;23.40;46.19;101266.81;5006055;28;20353;-74
2021/09/17 09:45:22;;;;;;;13.98;8.75;;;;;;;23.48;46.42;101255.75;5022597;28;20115;-75
2021/09/17 09:47:57;;;;;;;10.88;7.35;;;;;;;23.60;46.01;101263.72;5024773;28;20099;-75
2021/09/17 09:50:28;;;;;;;11.98;8.18;;;;;;;23.69;46.21;101257.09;5008698;28;20359;-74
2021/09/17 09:53:00;;;;;;;11.27;8.10;;;;;;;23.78;46.26;101261.59;5005576;28;20429;-75
2021/09/17 09:55:28;;;;;;;10.90;8.93;;;;;;;23.85;46.43;101257.03;5005473;28;20160;-75
2021/09/17 09:57:56;;;;;;;13.07;9.20;;;;;;;23.95;45.89;101254.06;5004795;28;20099;-75
2021/09/17 10:00:23;;;;;;;13.70;9.23;;;;;;;24.01;45.76;101247.78;5009489;28;20073;-75
2021/09/17 10:02:50;;;;;;;11.80;8.55;;;;;;;24.09;45.70;101248.63;4987884;28;20503;-74
2021/09/17 10:05:22;;;;;;;12.63;8.23;;;;;;;24.16;45.36;101252.41;5003468;28;20417;-75
2021/09/17 10:07:49;;;;;;;10.98;8.43;;;;;;;24.24;45.10;101255.16;5007294;28;20162;-75
2021/09/17 10:10:16;;;;;;;11.30;7.75;;;;;;;24.32;45.50;101250.59;5025835;28;20122;-75
2021/09/17 10:12:46;;;;;;;11.52;7.75;;;;;;;24.44;45.57;101257.50;5024986;28;20049;-75
2021/09/17 10:15:13;;;;;;;10.77;8.10;;;;;;;24.50;45.06;101257.63;5013273;28;20518;-75
2021/09/17 10:17:49;;;;;;;10.73;7.97;;;;;;;24.62;44.79;101256.13;4987987;28;20072;-74
2021/09/17 10:20:16;;;;;;;10.98;7.45;;;;;;;24.69;45.22;101247.09;4988842;28;20480;-75
2021/09/17 10:22:44;;;;;;;10.85;8.25;;;;;;;24.80;45.06;101246.63;5005213;28;20153;-75
2021/09/17 10:25:19;;;;;;;9.73;7.63;;;;;;;24.92;44.36;101247.97;5005844;28;20045;-75
2021/09/17 10:28:01;;;;;;;10.38;7.93;;;;;;;25.01;44.59;101255.19;5004239;28;20510;-75
2021/09/17 10:30:34;;;;;;;10.45;8.20;;;;;;;25.09;43.69;101246.78;5009587;28;20054;-75
2021/09/17 10:33:01;;;;;;;10.75;7.20;;;;;;;25.15;44.44;101243.25;5005314;28;20127;-75
2021/09/17 10:35:44;;;;;;;9.00;7.30;;;;;;;25.26;42.97;101236.38;5005628;28;20056;-75
2021/09/17 10:38:17;;;;;;;8.52;6.75;;;;;;;25.35;42.67;101238.03;4987581;28;20046;-74
2021/09/17 10:41:01;;;;;;;12.15;8.13;;;;;;;25.41;42.78;101234.47;5002253;28;20049;-75
2021/09/17 10:43:41;;;;;;;11.20;7.60;;;;;;;25.50;42.98;101238.03;5007088;28;20049;-75
2021/09/17 10:46:19;;;;;;;12.95;7.60;;;;;;;25.56;42.83;101238.13;5008016;28;20473;-74
2021/09/17 10:48:51;;;;;;;10.10;7.63;;;;;;;25.65;42.55;101242.56;4987452;28;20397;-74
2021/09/17 10:51:34;;;;;;;9.63;6.78;;;;;;;25.71;42.37;101233.47;4988625;28;20054;-75
2021/09/17 10:54:10;;;;;;;11.80;6.97;;;;;;;25.81;42.08;101237.88;4985063;28;20452;-75
2021/09/17 10:56:49;;;;;;;8.60;6.53;;;;;;;25.89;41.84;101235.00;5004760;28;20555;-74
2021/09/17 10:59:16;;;;;;;9.88;7.13;;;;;;;25.93;42.21;101240.00;5011167;28;20049;-75
2021/09/17 11:02:03;;;;;;;10.02;7.53;;;;;;;26.04;41.62;101236.69;5006007;28;20081;-74
2021/09/17 11:04:33;;;;;;;10.85;7.90;;;;;;;26.08;41.75;101229.69;4986972;28;20050;-76
2021/09/17 11:07:22;;;;;;;10.10;7.30;;;;;;;26.14;41.62;101231.69;5007317;28;20054;-75
2021/09/17 11:09:51;;;;;;;11.48;8.00;;;;;;;26.21;41.54;101236.47;5011032;28;20153;-74
2021/09/17 11:12:19;;;;;;;9.65;7.45;;;;;;;26.25;41.04;101226.69;5029570;28;20471;-75
2021/09/17 11:15:00;;;;;;;10.20;7.82;;;;;;;26.34;40.79;101231.97;5027586;28;20047;-74
2021/09/17 11:17:50;;;;;;;11.43;8.40;;;;;;;26.38;40.52;101229.66;5008034;28;20088;-74
2021/09/17 11:20:22;;;;;;;10.50;7.47;;;;;;;26.43;40.72;101230.81;5009300;28;20496;-75
2021/09/17 11:22:52;;;;;;;9.90;7.47;;;;;;;26.47;41.13;101225.69;5008491;28;20069;-74
2021/09/17 11:25:23;;;;;;;9.38;7.57;;;;;;;26.52;41.27;101221.25;5009213;28;20050;-75
2021/09/17 11:27:51;;;;;;;9.57;7.95;;;;;;;26.56;40.81;101220.84;5007200;28;20103;-74
2021/09/17 11:30:21;;;;;;;11.20;7.70;;;;;;;26.66;40.29;101218.63;4995749;28;20129;-74